Aegean Orion — SVA2487 — position and weather

sailwx.info

Track history (hours):
 
Tides and Currents Weather Stations Pressure Air Temp Water Temp Dewpoint Dewpoint Depression Visibility Wind Speed Wind Dir Waves Ship Positions

Aegean Orion

Last reported at 2017-Apr-27 15:19 UTC. Time now 2017-Apr-27 18:52 UTC.
Position N 38°02' E 023°32'.

; draft 2.4 m.

Type: Ship. MMSI: 239550200.

Date/timePositionNaut miles runAvg speedWind from/ knotsBaromVisibWave heightAir tempDewpointWater temp
2017-Apr-27 15:19N 38°02' E 023°32'1 3.4
2017-Apr-27 15:00N 38°01' E 023°32'7 6.5
2017-Apr-27 14:01N 37°56' E 023°38'0 1.0
2017-Apr-27 13:30N 37°57' E 023°38'0 0.0
2017-Apr-27 13:00N 37°57' E 023°38'0 0.0
2017-Apr-27 12:30N 37°57' E 023°38'1 2.9
2017-Apr-27 12:00N 37°57' E 023°37'1 1.0
2017-Apr-27 11:30N 37°57' E 023°36'1 2.7
2017-Apr-27 11:00N 37°57' E 023°35'0 0.0
2017-Apr-27 10:30N 37°57' E 023°35'0 0.0
2017-Apr-27 10:00N 37°57' E 023°35'1 1.8
2017-Apr-27 09:30N 37°57' E 023°36'2 3.1
2017-Apr-27 09:00N 37°56' E 023°37'0 0.0
2017-Apr-27 08:31N 37°56' E 023°37'0 0.0
2017-Apr-27 08:00N 37°56' E 023°37'0 0.0
2017-Apr-27 07:30N 37°56' E 023°37'0 0.0
2017-Apr-27 07:00N 37°56' E 023°37'1 1.5
2017-Apr-27 06:30N 37°56' E 023°36'3 6.7
2017-Apr-27 06:00N 37°58' E 023°33'3 6.6
2017-Apr-27 05:30N 38°01' E 023°32'1 2.0
2017-Apr-27 05:00N 38°02' E 023°32'0 0.0
2017-Apr-26 08:26N 38°02' E 023°32'2 3.7
2017-Apr-26 08:00N 38°02' E 023°34'1 2.3
2017-Apr-26 07:30N 38°02' E 023°35'0 0.4
2017-Apr-26 07:00N 38°02' E 023°35'0 0.4
2017-Apr-26 06:31N 38°02' E 023°35'0 0.0
2017-Apr-26 06:01N 38°02' E 023°35'0 0.0
2017-Apr-26 05:30N 38°02' E 023°35'0 0.0
2017-Apr-26 05:01N 38°02' E 023°35'2 3.8
2017-Apr-26 04:30N 38°02' E 023°33'1 1.8
2017-Apr-26 04:01N 38°02' E 023°32'0 0.0
2017-Apr-25 13:47N 38°02' E 023°32'1 3.5
2017-Apr-25 13:30N 38°01' E 023°32'4 7.9
2017-Apr-25 13:00N 37°57' E 023°33'4 7.5
2017-Apr-25 12:31N 37°56' E 023°38'0 0.1
2017-Apr-25 12:00N 37°56' E 023°38'0 0.0
2017-Apr-25 11:30N 37°56' E 023°38'0 0.0
2017-Apr-25 11:00N 37°56' E 023°38'0 0.0
2017-Apr-25 10:30N 37°56' E 023°38'1 2.6
2017-Apr-25 10:01N 37°57' E 023°36'3 5.1
2017-Apr-25 09:30N 37°57' E 023°33'3 6.3
2017-Apr-25 09:01N 38°01' E 023°34'2 3.8
2017-Apr-25 08:30N 38°02' E 023°35'0 0.0
2017-Apr-25 08:00N 38°02' E 023°35'0 0.0
2017-Apr-25 07:31N 38°02' E 023°35'0 0.0
2017-Apr-25 07:01N 38°02' E 023°35'3 0.2
2017-Apr-24 15:29N 38°02' E 023°32'0 0.5
2017-Apr-24 15:00N 38°02' E 023°32'4 7.9
2017-Apr-24 14:30N 37°58' E 023°33'5 4.7
2017-Apr-24 13:30N 37°57' E 023°38'0 0.0
2017-Apr-24 13:00N 37°57' E 023°38'0 0.0
2017-Apr-24 12:30N 37°57' E 023°38'0 0.4
2017-Apr-24 12:00N 37°57' E 023°38'0 0.0
2017-Apr-24 11:30N 37°57' E 023°38'0 0.0
2017-Apr-24 11:00N 37°57' E 023°38'0 0.0
2017-Apr-24 10:30N 37°57' E 023°38'0 0.0
2017-Apr-24 10:00N 37°57' E 023°38'0 0.0
2017-Apr-24 09:30N 37°57' E 023°38'0 0.0
2017-Apr-24 09:00N 37°57' E 023°38'0 0.0
2017-Apr-24 08:30N 37°57' E 023°38'0 0.0
2017-Apr-24 08:00N 37°57' E 023°38'1 1.3
2017-Apr-24 07:30N 37°56' E 023°38'3 5.6
2017-Apr-24 07:00N 37°57' E 023°34'3 5.9
2017-Apr-24 06:30N 38°00' E 023°33'3 5.5
2017-Apr-24 06:00N 38°02' E 023°35'0 0.2
2017-Apr-24 05:31N 38°02' E 023°35'0 0.1
2017-Apr-24 05:00N 38°02' E 023°35'0 0.0
2017-Apr-24 04:30N 38°02' E 023°35'0 0.0
2017-Apr-24 04:00N 38°02' E 023°35'0 0.0
2017-Apr-24 03:30N 38°02' E 023°35'3 5.3
2017-Apr-24 03:01N 38°02' E 023°32'0 0.0
2017-Apr-22 00:37N 38°02' E 023°32'0 0.2
2017-Apr-22 00:31N 38°02' E 023°32'3 5.6
2017-Apr-22 00:01N 37°60' E 023°33'3 6.3
2017-Apr-21 23:30N 37°57' E 023°35'3 5.5
2017-Apr-21 23:00N 37°57' E 023°38'0 0.0
2017-Apr-21 22:31N 37°57' E 023°38'0 0.0
2017-Apr-21 22:01N 37°57' E 023°38'0 0.0
2017-Apr-21 21:31N 37°57' E 023°38'0 0.0
2017-Apr-21 21:01N 37°57' E 023°38'0 0.2
2017-Apr-21 20:30N 37°57' E 023°38'2 4.8
2017-Apr-21 20:01N 37°57' E 023°35'1 2.1
2017-Apr-21 19:30N 37°57' E 023°34'0 0.0
2017-Apr-21 19:01N 37°57' E 023°34'0 0.0
2017-Apr-21 18:31N 37°57' E 023°34'0 0.0
2017-Apr-21 18:01N 37°57' E 023°34'0 0.0
2017-Apr-21 17:31N 37°57' E 023°34'0 0.0
2017-Apr-21 17:00N 37°57' E 023°34'0 0.0
2017-Apr-21 16:30N 37°57' E 023°34'0 0.1
2017-Apr-21 16:01N 37°57' E 023°34'0 0.0
2017-Apr-21 15:31N 37°57' E 023°34'0 0.0
2017-Apr-21 15:00N 37°57' E 023°34'0 0.0
2017-Apr-21 14:31N 37°57' E 023°34'5 5.2
2017-Apr-21 13:31N 38°02' E 023°31'0 0.9
2017-Apr-21 13:00N 38°02' E 023°31'0 0.0
2017-Apr-21 12:31N 38°02' E 023°31'0 0.0
2017-Apr-21 12:00N 38°02' E 023°31'0 0.0
2017-Apr-21 11:30N 38°02' E 023°31'0 0.0
2017-Apr-21 11:00N 38°02' E 023°31'0 0.0
2017-Apr-21 10:30N 38°02' E 023°31'0 0.9
2017-Apr-21 10:01N 38°02' E 023°31'0 0.1
2017-Apr-21 09:31N 38°02' E 023°31'2 4.4
2017-Apr-21 09:00N 38°02' E 023°34'1 2.2
2017-Apr-21 08:31N 38°02' E 023°35'0 0.0
2017-Apr-21 08:01N 38°02' E 023°35'0 0.0
2017-Apr-21 07:31N 38°02' E 023°35'0 0.0
2017-Apr-21 07:00N 38°02' E 023°35'0 0.0
2017-Apr-21 06:31N 38°02' E 023°35'0 0.0
2017-Apr-21 06:01N 38°02' E 023°35'3 0.1
2017-Apr-20 11:17N 38°02' E 023°32'0 0.1
2017-Apr-20 11:01N 38°02' E 023°32'3 5.1
2017-Apr-20 10:31N 37°60' E 023°33'3 5.9
2017-Apr-20 10:01N 37°57' E 023°34'2 4.8
2017-Apr-20 09:30N 37°56' E 023°37'0 0.0
2017-Apr-20 09:00N 37°56' E 023°37'0 0.0
2017-Apr-20 08:31N 37°56' E 023°37'0 0.0
2017-Apr-20 08:01N 37°56' E 023°37'0 0.0
2017-Apr-20 07:30N 37°56' E 023°37'1 1.0
2017-Apr-20 07:01N 37°56' E 023°37'2 3.0
2017-Apr-20 06:30N 37°57' E 023°35'1 1.2
2017-Apr-20 06:01N 37°57' E 023°35'0 0.0
2017-Apr-20 05:31N 37°57' E 023°35'0 0.0
2017-Apr-20 05:01N 37°57' E 023°34'0 0.1
2017-Apr-20 04:31N 37°57' E 023°34'0 0.0
2017-Apr-20 04:01N 37°57' E 023°34'0 0.1
2017-Apr-20 03:30N 37°57' E 023°34'0 0.0
2017-Apr-20 03:01N 37°57' E 023°34'0 0.0
2017-Apr-20 02:31N 37°57' E 023°34'0 0.0
2017-Apr-20 02:01N 37°57' E 023°34'0 0.0
2017-Apr-20 01:31N 37°57' E 023°34'0 0.0
2017-Apr-20 01:01N 37°57' E 023°34'0 0.0
2017-Apr-20 00:31N 37°57' E 023°34'0 0.1
2017-Apr-20 00:01N 37°57' E 023°34'0 0.0
2017-Apr-19 23:31N 37°57' E 023°34'0 0.0
2017-Apr-19 23:01N 37°57' E 023°34'0 0.0
2017-Apr-19 22:31N 37°57' E 023°34'0 0.0
2017-Apr-19 22:01N 37°57' E 023°34'0 0.0
2017-Apr-19 21:31N 37°57' E 023°34'0 0.0
2017-Apr-19 21:01N 37°57' E 023°34'0 0.0
2017-Apr-19 20:31N 37°57' E 023°34'0 0.1
2017-Apr-19 20:00N 37°57' E 023°34'0 0.2
2017-Apr-19 19:31N 37°57' E 023°34'2 5.0
2017-Apr-19 19:01N 37°56' E 023°37'1 2.1
2017-Apr-19 18:30N 37°57' E 023°38'0 0.0
2017-Apr-19 18:01N 37°57' E 023°38'0 0.0
2017-Apr-19 17:30N 37°57' E 023°38'2 3.2
2017-Apr-19 17:00N 37°56' E 023°37'2 3.9
2017-Apr-19 16:30N 37°57' E 023°34'0 0.2
2017-Apr-19 16:00N 37°57' E 023°34'0 0.1
2017-Apr-19 15:31N 37°57' E 023°34'0 0.1
2017-Apr-19 15:01N 37°57' E 023°34'0 0.0
2017-Apr-19 14:31N 37°57' E 023°34'0 0.0
2017-Apr-19 13:31N 37°57' E 023°34'1 1.0
2017-Apr-19 13:01N 37°57' E 023°34'2 4.8
2017-Apr-19 12:31N 37°60' E 023°33'3 5.5
2017-Apr-19 12:00N 38°02' E 023°35'0 0.5
2017-Apr-19 11:30N 38°02' E 023°35'0 0.0
2017-Apr-19 11:00N 38°02' E 023°35'0 0.0
2017-Apr-19 10:30N 38°02' E 023°35'0 0.0
2017-Apr-19 10:01N 38°02' E 023°35'0 0.0
2017-Apr-19 09:31N 38°02' E 023°35'0 0.0
2017-Apr-19 09:00N 38°02' E 023°35'0 0.0
2017-Apr-19 08:31N 38°02' E 023°35'0 0.0
2017-Apr-19 08:01N 38°02' E 023°35'0 0.0
2017-Apr-19 07:30N 38°02' E 023°35'0 0.0
2017-Apr-19 07:00N 38°02' E 023°35'0 0.0
2017-Apr-19 06:31N 38°02' E 023°35'1 3.0
2017-Apr-19 06:01N 38°02' E 023°33'1 0.1
2017-Apr-18 15:38N 38°02' E 023°32'0 1.3
2017-Apr-18 15:30N 38°02' E 023°32'4 7.4
2017-Apr-18 15:01N 37°58' E 023°33'3 6.8
2017-Apr-18 14:31N 37°57' E 023°36'2 1.7
2017-Apr-18 13:31N 37°57' E 023°38'0 0.0
2017-Apr-18 13:01N 37°57' E 023°38'1 1.7
2017-Apr-18 12:30N 37°56' E 023°37'0 0.0
2017-Apr-18 12:01N 37°56' E 023°37'0 0.1
2017-Apr-18 11:30N 37°56' E 023°37'3 6.4
2017-Apr-18 11:01N 37°57' E 023°34'3 5.9
2017-Apr-18 10:31N 38°00' E 023°33'2 4.5
2017-Apr-18 10:00N 38°02' E 023°35'0 0.0
2017-Apr-18 09:30N 38°02' E 023°35'0 0.0
2017-Apr-18 09:00N 38°02' E 023°35'  
Track history (hours):
 
Tides and Currents Weather Stations Pressure Air Temp Water Temp Dewpoint Dewpoint Depression Visibility Wind Speed Wind Dir Waves Ship Positions

Aegean Orion

Last reported at 2017-Apr-27 15:19 UTC. Time now 2017-Apr-27 18:52 UTC.
Position N 38°02' E 023°32'.

; draft 2.4 m.

Type: Ship. MMSI: 239550200.

Date/timePositionNaut miles runAvg speedWind from/ knotsBaromVisibWave heightAir tempDewpointWater temp
2017-Apr-27 15:19N 38°02' E 023°32'1 3.4
2017-Apr-27 15:00N 38°01' E 023°32'7 6.5
2017-Apr-27 14:01N 37°56' E 023°38'0 1.0
2017-Apr-27 13:30N 37°57' E 023°38'0 0.0
2017-Apr-27 13:00N 37°57' E 023°38'0 0.0
2017-Apr-27 12:30N 37°57' E 023°38'1 2.9
2017-Apr-27 12:00N 37°57' E 023°37'1 1.0
2017-Apr-27 11:30N 37°57' E 023°36'1 2.7
2017-Apr-27 11:00N 37°57' E 023°35'0 0.0
2017-Apr-27 10:30N 37°57' E 023°35'0 0.0
2017-Apr-27 10:00N 37°57' E 023°35'1 1.8
2017-Apr-27 09:30N 37°57' E 023°36'2 3.1
2017-Apr-27 09:00N 37°56' E 023°37'0 0.0
2017-Apr-27 08:31N 37°56' E 023°37'0 0.0
2017-Apr-27 08:00N 37°56' E 023°37'0 0.0
2017-Apr-27 07:30N 37°56' E 023°37'0 0.0
2017-Apr-27 07:00N 37°56' E 023°37'1 1.5
2017-Apr-27 06:30N 37°56' E 023°36'3 6.7
2017-Apr-27 06:00N 37°58' E 023°33'3 6.6
2017-Apr-27 05:30N 38°01' E 023°32'1 2.0
2017-Apr-27 05:00N 38°02' E 023°32'0 0.0
2017-Apr-26 08:26N 38°02' E 023°32'2 3.7
2017-Apr-26 08:00N 38°02' E 023°34'1 2.3
2017-Apr-26 07:30N 38°02' E 023°35'0 0.4
2017-Apr-26 07:00N 38°02' E 023°35'0 0.4
2017-Apr-26 06:31N 38°02' E 023°35'0 0.0
2017-Apr-26 06:01N 38°02' E 023°35'0 0.0
2017-Apr-26 05:30N 38°02' E 023°35'0 0.0
2017-Apr-26 05:01N 38°02' E 023°35'2 3.8
2017-Apr-26 04:30N 38°02' E 023°33'1 1.8
2017-Apr-26 04:01N 38°02' E 023°32'0 0.0
2017-Apr-25 13:47N 38°02' E 023°32'1 3.5
2017-Apr-25 13:30N 38°01' E 023°32'4 7.9
2017-Apr-25 13:00N 37°57' E 023°33'4 7.5
2017-Apr-25 12:31N 37°56' E 023°38'0 0.1
2017-Apr-25 12:00N 37°56' E 023°38'0 0.0
2017-Apr-25 11:30N 37°56' E 023°38'0 0.0
2017-Apr-25 11:00N 37°56' E 023°38'0 0.0
2017-Apr-25 10:30N 37°56' E 023°38'1 2.6
2017-Apr-25 10:01N 37°57' E 023°36'3 5.1
2017-Apr-25 09:30N 37°57' E 023°33'3 6.3
2017-Apr-25 09:01N 38°01' E 023°34'2 3.8
2017-Apr-25 08:30N 38°02' E 023°35'0 0.0
2017-Apr-25 08:00N 38°02' E 023°35'0 0.0
2017-Apr-25 07:31N 38°02' E 023°35'0 0.0
2017-Apr-25 07:01N 38°02' E 023°35'3 0.2
2017-Apr-24 15:29N 38°02' E 023°32'0 0.5
2017-Apr-24 15:00N 38°02' E 023°32'4 7.9
2017-Apr-24 14:30N 37°58' E 023°33'5 4.7
2017-Apr-24 13:30N 37°57' E 023°38'0 0.0
2017-Apr-24 13:00N 37°57' E 023°38'0 0.0
2017-Apr-24 12:30N 37°57' E 023°38'0 0.4
2017-Apr-24 12:00N 37°57' E 023°38'0 0.0
2017-Apr-24 11:30N 37°57' E 023°38'0 0.0
2017-Apr-24 11:00N 37°57' E 023°38'0 0.0
2017-Apr-24 10:30N 37°57' E 023°38'0 0.0
2017-Apr-24 10:00N 37°57' E 023°38'0 0.0
2017-Apr-24 09:30N 37°57' E 023°38'0 0.0
2017-Apr-24 09:00N 37°57' E 023°38'0 0.0
2017-Apr-24 08:30N 37°57' E 023°38'0 0.0
2017-Apr-24 08:00N 37°57' E 023°38'1 1.3
2017-Apr-24 07:30N 37°56' E 023°38'3 5.6
2017-Apr-24 07:00N 37°57' E 023°34'3 5.9
2017-Apr-24 06:30N 38°00' E 023°33'3 5.5
2017-Apr-24 06:00N 38°02' E 023°35'0 0.2
2017-Apr-24 05:31N 38°02' E 023°35'0 0.1
2017-Apr-24 05:00N 38°02' E 023°35'0 0.0
2017-Apr-24 04:30N 38°02' E 023°35'0 0.0
2017-Apr-24 04:00N 38°02' E 023°35'0 0.0
2017-Apr-24 03:30N 38°02' E 023°35'3 5.3
2017-Apr-24 03:01N 38°02' E 023°32'0 0.0
2017-Apr-22 00:37N 38°02' E 023°32'0 0.2
2017-Apr-22 00:31N 38°02' E 023°32'3 5.6
2017-Apr-22 00:01N 37°60' E 023°33'3 6.3
2017-Apr-21 23:30N 37°57' E 023°35'3 5.5
2017-Apr-21 23:00N 37°57' E 023°38'0 0.0
2017-Apr-21 22:31N 37°57' E 023°38'0 0.0
2017-Apr-21 22:01N 37°57' E 023°38'0 0.0
2017-Apr-21 21:31N 37°57' E 023°38'0 0.0
2017-Apr-21 21:01N 37°57' E 023°38'0 0.2
2017-Apr-21 20:30N 37°57' E 023°38'2 4.8
2017-Apr-21 20:01N 37°57' E 023°35'1 2.1
2017-Apr-21 19:30N 37°57' E 023°34'0 0.0
2017-Apr-21 19:01N 37°57' E 023°34'0 0.0
2017-Apr-21 18:31N 37°57' E 023°34'0 0.0
2017-Apr-21 18:01N 37°57' E 023°34'0 0.0
2017-Apr-21 17:31N 37°57' E 023°34'0 0.0
2017-Apr-21 17:00N 37°57' E 023°34'0 0.0
2017-Apr-21 16:30N 37°57' E 023°34'0 0.1
2017-Apr-21 16:01N 37°57' E 023°34'0 0.0
2017-Apr-21 15:31N 37°57' E 023°34'0 0.0
2017-Apr-21 15:00N 37°57' E 023°34'0 0.0
2017-Apr-21 14:31N 37°57' E 023°34'5 5.2
2017-Apr-21 13:31N 38°02' E 023°31'0 0.9
2017-Apr-21 13:00N 38°02' E 023°31'0 0.0
2017-Apr-21 12:31N 38°02' E 023°31'0 0.0
2017-Apr-21 12:00N 38°02' E 023°31'0 0.0
2017-Apr-21 11:30N 38°02' E 023°31'0 0.0
2017-Apr-21 11:00N 38°02' E 023°31'0 0.0
2017-Apr-21 10:30N 38°02' E 023°31'0 0.9
2017-Apr-21 10:01N 38°02' E 023°31'0 0.1
2017-Apr-21 09:31N 38°02' E 023°31'2 4.4
2017-Apr-21 09:00N 38°02' E 023°34'1 2.2
2017-Apr-21 08:31N 38°02' E 023°35'0 0.0
2017-Apr-21 08:01N 38°02' E 023°35'0 0.0
2017-Apr-21 07:31N 38°02' E 023°35'0 0.0
2017-Apr-21 07:00N 38°02' E 023°35'0 0.0
2017-Apr-21 06:31N 38°02' E 023°35'0 0.0
2017-Apr-21 06:01N 38°02' E 023°35'3 0.1
2017-Apr-20 11:17N 38°02' E 023°32'0 0.1
2017-Apr-20 11:01N 38°02' E 023°32'3 5.1
2017-Apr-20 10:31N 37°60' E 023°33'3 5.9
2017-Apr-20 10:01N 37°57' E 023°34'2 4.8
2017-Apr-20 09:30N 37°56' E 023°37'0 0.0
2017-Apr-20 09:00N 37°56' E 023°37'0 0.0
2017-Apr-20 08:31N 37°56' E 023°37'0 0.0
2017-Apr-20 08:01N 37°56' E 023°37'0 0.0
2017-Apr-20 07:30N 37°56' E 023°37'1 1.0
2017-Apr-20 07:01N 37°56' E 023°37'2 3.0
2017-Apr-20 06:30N 37°57' E 023°35'1 1.2
2017-Apr-20 06:01N 37°57' E 023°35'0 0.0
2017-Apr-20 05:31N 37°57' E 023°35'0 0.0
2017-Apr-20 05:01N 37°57' E 023°34'0 0.1
2017-Apr-20 04:31N 37°57' E 023°34'0 0.0
2017-Apr-20 04:01N 37°57' E 023°34'0 0.1
2017-Apr-20 03:30N 37°57' E 023°34'0 0.0
2017-Apr-20 03:01N 37°57' E 023°34'0 0.0
2017-Apr-20 02:31N 37°57' E 023°34'0 0.0
2017-Apr-20 02:01N 37°57' E 023°34'0 0.0
2017-Apr-20 01:31N 37°57' E 023°34'0 0.0
2017-Apr-20 01:01N 37°57' E 023°34'0 0.0
2017-Apr-20 00:31N 37°57' E 023°34'0 0.1
2017-Apr-20 00:01N 37°57' E 023°34'0 0.0
2017-Apr-19 23:31N 37°57' E 023°34'0 0.0
2017-Apr-19 23:01N 37°57' E 023°34'0 0.0
2017-Apr-19 22:31N 37°57' E 023°34'0 0.0
2017-Apr-19 22:01N 37°57' E 023°34'0 0.0
2017-Apr-19 21:31N 37°57' E 023°34'0 0.0
2017-Apr-19 21:01N 37°57' E 023°34'0 0.0
2017-Apr-19 20:31N 37°57' E 023°34'0 0.1
2017-Apr-19 20:00N 37°57' E 023°34'0 0.2
2017-Apr-19 19:31N 37°57' E 023°34'2 5.0
2017-Apr-19 19:01N 37°56' E 023°37'1 2.1
2017-Apr-19 18:30N 37°57' E 023°38'0 0.0
2017-Apr-19 18:01N 37°57' E 023°38'0 0.0
2017-Apr-19 17:30N 37°57' E 023°38'2 3.2
2017-Apr-19 17:00N 37°56' E 023°37'2 3.9
2017-Apr-19 16:30N 37°57' E 023°34'0 0.2
2017-Apr-19 16:00N 37°57' E 023°34'0 0.1
2017-Apr-19 15:31N 37°57' E 023°34'0 0.1
2017-Apr-19 15:01N 37°57' E 023°34'0 0.0
2017-Apr-19 14:31N 37°57' E 023°34'0 0.0
2017-Apr-19 13:31N 37°57' E 023°34'1 1.0
2017-Apr-19 13:01N 37°57' E 023°34'2 4.8
2017-Apr-19 12:31N 37°60' E 023°33'3 5.5
2017-Apr-19 12:00N 38°02' E 023°35'0 0.5
2017-Apr-19 11:30N 38°02' E 023°35'0 0.0
2017-Apr-19 11:00N 38°02' E 023°35'0 0.0
2017-Apr-19 10:30N 38°02' E 023°35'0 0.0
2017-Apr-19 10:01N 38°02' E 023°35'0 0.0
2017-Apr-19 09:31N 38°02' E 023°35'0 0.0
2017-Apr-19 09:00N 38°02' E 023°35'0 0.0
2017-Apr-19 08:31N 38°02' E 023°35'0 0.0
2017-Apr-19 08:01N 38°02' E 023°35'0 0.0
2017-Apr-19 07:30N 38°02' E 023°35'0 0.0
2017-Apr-19 07:00N 38°02' E 023°35'0 0.0
2017-Apr-19 06:31N 38°02' E 023°35'1 3.0
2017-Apr-19 06:01N 38°02' E 023°33'1 0.1
2017-Apr-18 15:38N 38°02' E 023°32'0 1.3
2017-Apr-18 15:30N 38°02' E 023°32'4 7.4
2017-Apr-18 15:01N 37°58' E 023°33'3 6.8
2017-Apr-18 14:31N 37°57' E 023°36'2 1.7
2017-Apr-18 13:31N 37°57' E 023°38'0 0.0
2017-Apr-18 13:01N 37°57' E 023°38'1 1.7
2017-Apr-18 12:30N 37°56' E 023°37'0 0.0
2017-Apr-18 12:01N 37°56' E 023°37'0 0.1
2017-Apr-18 11:30N 37°56' E 023°37'3 6.4
2017-Apr-18 11:01N 37°57' E 023°34'3 5.9
2017-Apr-18 10:31N 38°00' E 023°33'2 4.5
2017-Apr-18 10:00N 38°02' E 023°35'0 0.0
2017-Apr-18 09:30N 38°02' E 023°35'0 0.0
2017-Apr-18 09:00N 38°02' E 023°35'  

Dump ship's entire track history